sensor_id;sensor_type;location;lat;lon;timestamp;P1;durP1;ratioP1;P2;durP2;ratioP2
66707;SDS011;53622;0.000;0.000;2023-06-14T00:01:05;1.52;;;1.10;;
66707;SDS011;53622;0.000;0.000;2023-06-14T00:03:34;0.90;;;0.90;;
66707;SDS011;53622;0.000;0.000;2023-06-14T00:06:03;1.73;;;0.90;;
66707;SDS011;53622;0.000;0.000;2023-06-14T00:08:33;1.02;;;0.90;;
66707;SDS011;53622;0.000;0.000;2023-06-14T00:11:03;2.20;;;1.00;;
66707;SDS011;53622;0.000;0.000;2023-06-14T00:13:32;1.45;;;1.20;;
66707;SDS011;53622;0.000;0.000;2023-06-14T00:16:03;0.93;;;0.88;;
66707;SDS011;53622;0.000;0.000;2023-06-14T00:18:32;1.77;;;1.02;;
66707;SDS011;53622;0.000;0.000;2023-06-14T00:21:01;1.30;;;1.10;;
66707;SDS011;53622;0.000;0.000;2023-06-14T00:23:31;1.17;;;1.00;;
66707;SDS011;53622;0.000;0.000;2023-06-14T00:26:00;1.75;;;1.00;;
66707;SDS011;53622;0.000;0.000;2023-06-14T00:28:30;1.13;;;0.77;;
66707;SDS011;53622;0.000;0.000;2023-06-14T00:30:59;2.40;;;1.20;;
66707;SDS011;53622;0.000;0.000;2023-06-14T00:33:30;1.05;;;1.02;;
66707;SDS011;53622;0.000;0.000;2023-06-14T00:35:59;1.38;;;1.10;;
66707;SDS011;53622;0.000;0.000;2023-06-14T00:38:28;1.73;;;1.00;;
66707;SDS011;53622;0.000;0.000;2023-06-14T00:40:57;1.48;;;1.00;;
66707;SDS011;53622;0.000;0.000;2023-06-14T00:43:27;2.42;;;1.10;;
66707;SDS011;53622;0.000;0.000;2023-06-14T00:45:56;1.13;;;1.02;;
66707;SDS011;53622;0.000;0.000;2023-06-14T00:48:26;1.20;;;1.10;;
66707;SDS011;53622;0.000;0.000;2023-06-14T00:50:59;1.30;;;1.10;;
66707;SDS011;53622;0.000;0.000;2023-06-14T00:53:31;1.23;;;1.10;;
66707;SDS011;53622;0.000;0.000;2023-06-14T00:56:03;1.15;;;1.05;;
66707;SDS011;53622;0.000;0.000;2023-06-14T00:58:32;1.05;;;0.95;;
66707;SDS011;53622;0.000;0.000;2023-06-14T01:01:02;1.80;;;1.10;;
66707;SDS011;53622;0.000;0.000;2023-06-14T01:03:33;0.90;;;0.90;;
66707;SDS011;53622;0.000;0.000;2023-06-14T01:06:05;1.40;;;1.20;;
66707;SDS011;53622;0.000;0.000;2023-06-14T01:08:44;0.88;;;0.88;;
66707;SDS011;53622;0.000;0.000;2023-06-14T01:11:21;1.52;;;1.05;;
66707;SDS011;53622;0.000;0.000;2023-06-14T01:13:55;1.05;;;1.02;;
66707;SDS011;53622;0.000;0.000;2023-06-14T01:16:25;1.05;;;0.95;;
66707;SDS011;53622;0.000;0.000;2023-06-14T01:18:55;1.27;;;0.90;;
66707;SDS011;53622;0.000;0.000;2023-06-14T01:21:27;1.10;;;1.00;;
66707;SDS011;53622;0.000;0.000;2023-06-14T01:23:58;1.42;;;1.10;;
66707;SDS011;53622;0.000;0.000;2023-06-14T01:26:30;1.25;;;1.05;;
66707;SDS011;53622;0.000;0.000;2023-06-14T01:28:59;1.25;;;1.10;;
66707;SDS011;53622;0.000;0.000;2023-06-14T01:31:29;0.80;;;0.80;;
66707;SDS011;53622;0.000;0.000;2023-06-14T01:34:08;1.17;;;0.82;;
66707;SDS011;53622;0.000;0.000;2023-06-14T01:36:38;1.10;;;1.00;;
66707;SDS011;53622;0.000;0.000;2023-06-14T01:39:11;0.98;;;0.82;;
66707;SDS011;53622;0.000;0.000;2023-06-14T01:41:43;1.48;;;1.00;;
66707;SDS011;53622;0.000;0.000;2023-06-14T01:44:14;1.02;;;0.95;;
66707;SDS011;53622;0.000;0.000;2023-06-14T01:46:46;0.70;;;0.70;;
66707;SDS011;53622;0.000;0.000;2023-06-14T01:49:16;1.20;;;1.00;;
66707;SDS011;53622;0.000;0.000;2023-06-14T01:51:45;1.58;;;1.05;;
66707;SDS011;53622;0.000;0.000;2023-06-14T01:54:17;1.10;;;1.05;;
66707;SDS011;53622;0.000;0.000;2023-06-14T01:56:46;1.20;;;1.10;;
66707;SDS011;53622;0.000;0.000;2023-06-14T01:59:15;1.00;;;0.90;;
66707;SDS011;53622;0.000;0.000;2023-06-14T02:01:44;1.50;;;1.40;;
66707;SDS011;53622;0.000;0.000;2023-06-14T02:04:14;1.17;;;1.08;;
66707;SDS011;53622;0.000;0.000;2023-06-14T02:06:43;1.13;;;1.02;;
66707;SDS011;53622;0.000;0.000;2023-06-14T02:09:13;1.40;;;0.82;;
66707;SDS011;53622;0.000;0.000;2023-06-14T02:11:43;1.13;;;0.90;;
66707;SDS011;53622;0.000;0.000;2023-06-14T02:14:13;0.88;;;0.88;;
66707;SDS011;53622;0.000;0.000;2023-06-14T02:16:44;1.45;;;1.15;;
66707;SDS011;53622;0.000;0.000;2023-06-14T02:19:16;1.70;;;1.02;;
66707;SDS011;53622;0.000;0.000;2023-06-14T02:21:46;1.10;;;1.00;;
66707;SDS011;53622;0.000;0.000;2023-06-14T02:24:16;1.40;;;1.25;;
66707;SDS011;53622;0.000;0.000;2023-06-14T02:26:46;1.20;;;1.10;;
66707;SDS011;53622;0.000;0.000;2023-06-14T02:29:15;1.08;;;0.90;;
66707;SDS011;53622;0.000;0.000;2023-06-14T02:31:45;0.88;;;0.80;;
66707;SDS011;53622;0.000;0.000;2023-06-14T02:34:16;1.30;;;1.10;;
66707;SDS011;53622;0.000;0.000;2023-06-14T02:36:47;2.17;;;0.90;;
66707;SDS011;53622;0.000;0.000;2023-06-14T02:39:17;1.15;;;1.02;;
66707;SDS011;53622;0.000;0.000;2023-06-14T02:41:49;1.42;;;1.00;;
66707;SDS011;53622;0.000;0.000;2023-06-14T02:44:23;1.75;;;0.80;;
66707;SDS011;53622;0.000;0.000;2023-06-14T02:46:54;1.70;;;0.90;;
66707;SDS011;53622;0.000;0.000;2023-06-14T02:49:23;1.75;;;0.80;;
66707;SDS011;53622;0.000;0.000;2023-06-14T02:51:54;1.10;;;0.82;;
66707;SDS011;53622;0.000;0.000;2023-06-14T02:54:23;0.80;;;0.80;;
66707;SDS011;53622;0.000;0.000;2023-06-14T02:56:54;1.25;;;1.00;;
66707;SDS011;53622;0.000;0.000;2023-06-14T02:59:23;2.05;;;1.10;;
66707;SDS011;53622;0.000;0.000;2023-06-14T03:01:55;0.88;;;0.70;;
66707;SDS011;53622;0.000;0.000;2023-06-14T03:04:24;1.35;;;1.05;;
66707;SDS011;53622;0.000;0.000;2023-06-14T03:06:54;0.88;;;0.82;;
66707;SDS011;53622;0.000;0.000;2023-06-14T03:09:23;1.75;;;1.00;;
66707;SDS011;53622;0.000;0.000;2023-06-14T03:11:53;1.00;;;0.90;;
66707;SDS011;53622;0.000;0.000;2023-06-14T03:14:23;2.60;;;1.00;;
66707;SDS011;53622;0.000;0.000;2023-06-14T03:16:53;0.90;;;0.90;;
66707;SDS011;53622;0.000;0.000;2023-06-14T03:19:24;2.67;;;1.13;;
66707;SDS011;53622;0.000;0.000;2023-06-14T03:21:54;2.22;;;0.80;;
66707;SDS011;53622;0.000;0.000;2023-06-14T03:24:27;1.63;;;0.90;;
66707;SDS011;53622;0.000;0.000;2023-06-14T03:26:59;0.73;;;0.70;;
66707;SDS011;53622;0.000;0.000;2023-06-14T03:29:29;0.80;;;0.80;;
66707;SDS011;53622;0.000;0.000;2023-06-14T03:31:59;1.15;;;1.00;;
66707;SDS011;53622;0.000;0.000;2023-06-14T03:34:35;1.30;;;0.90;;
66707;SDS011;53622;0.000;0.000;2023-06-14T03:37:08;1.13;;;1.00;;
66707;SDS011;53622;0.000;0.000;2023-06-14T03:39:37;0.75;;;0.75;;
66707;SDS011;53622;0.000;0.000;2023-06-14T03:42:18;0.85;;;0.85;;
66707;SDS011;53622;0.000;0.000;2023-06-14T03:44:48;1.27;;;0.80;;
66707;SDS011;53622;0.000;0.000;2023-06-14T03:47:20;0.77;;;0.77;;
66707;SDS011;53622;0.000;0.000;2023-06-14T03:49:50;1.67;;;0.90;;
66707;SDS011;53622;0.000;0.000;2023-06-14T03:52:19;1.25;;;1.00;;
66707;SDS011;53622;0.000;0.000;2023-06-14T03:54:49;1.00;;;0.70;;
66707;SDS011;53622;0.000;0.000;2023-06-14T03:57:24;1.50;;;0.90;;
66707;SDS011;53622;0.000;0.000;2023-06-14T03:59:55;0.85;;;0.85;;
66707;SDS011;53622;0.000;0.000;2023-06-14T04:02:25;1.38;;;0.98;;
66707;SDS011;53622;0.000;0.000;2023-06-14T04:04:56;0.90;;;0.90;;
66707;SDS011;53622;0.000;0.000;2023-06-14T04:07:28;1.55;;;0.82;;
66707;SDS011;53622;0.000;0.000;2023-06-14T04:09:57;0.95;;;0.88;;
66707;SDS011;53622;0.000;0.000;2023-06-14T04:12:28;0.90;;;0.90;;
66707;SDS011;53622;0.000;0.000;2023-06-14T04:14:59;0.95;;;0.90;;
66707;SDS011;53622;0.000;0.000;2023-06-14T04:17:45;1.05;;;0.95;;
66707;SDS011;53622;0.000;0.000;2023-06-14T04:20:16;0.93;;;0.80;;
66707;SDS011;53622;0.000;0.000;2023-06-14T04:22:47;0.80;;;0.80;;
66707;SDS011;53622;0.000;0.000;2023-06-14T04:25:16;1.00;;;0.90;;
66707;SDS011;53622;0.000;0.000;2023-06-14T04:27:52;0.70;;;0.70;;
66707;SDS011;53622;0.000;0.000;2023-06-14T04:30:22;1.40;;;0.90;;
66707;SDS011;53622;0.000;0.000;2023-06-14T04:32:54;1.40;;;1.30;;
66707;SDS011;53622;0.000;0.000;2023-06-14T04:35:24;0.70;;;0.70;;
66707;SDS011;53622;0.000;0.000;2023-06-14T04:37:55;2.88;;;1.00;;
66707;SDS011;53622;0.000;0.000;2023-06-14T04:40:25;1.13;;;0.90;;
66707;SDS011;53622;0.000;0.000;2023-06-14T04:42:55;0.90;;;0.90;;
66707;SDS011;53622;0.000;0.000;2023-06-14T04:45:25;0.90;;;0.90;;
66707;SDS011;53622;0.000;0.000;2023-06-14T04:47:59;1.63;;;0.82;;
66707;SDS011;53622;0.000;0.000;2023-06-14T04:50:28;1.08;;;1.00;;
66707;SDS011;53622;0.000;0.000;2023-06-14T04:53:00;0.95;;;0.93;;
66707;SDS011;53622;0.000;0.000;2023-06-14T04:55:30;0.90;;;0.90;;
66707;SDS011;53622;0.000;0.000;2023-06-14T04:58:02;0.95;;;0.90;;
66707;SDS011;53622;0.000;0.000;2023-06-14T05:00:32;0.82;;;0.80;;
66707;SDS011;53622;0.000;0.000;2023-06-14T05:03:02;0.70;;;0.70;;
66707;SDS011;53622;0.000;0.000;2023-06-14T05:05:33;1.10;;;1.10;;
66707;SDS011;53622;0.000;0.000;2023-06-14T05:08:03;0.90;;;0.90;;
66707;SDS011;53622;0.000;0.000;2023-06-14T05:10:33;0.80;;;0.80;;
66707;SDS011;53622;0.000;0.000;2023-06-14T05:13:04;1.38;;;1.02;;
66707;SDS011;53622;0.000;0.000;2023-06-14T05:15:34;1.92;;;1.20;;
66707;SDS011;53622;0.000;0.000;2023-06-14T05:18:03;1.63;;;1.10;;
66707;SDS011;53622;0.000;0.000;2023-06-14T05:20:36;1.10;;;0.82;;
66707;SDS011;53622;0.000;0.000;2023-06-14T05:23:06;1.00;;;0.90;;
66707;SDS011;53622;0.000;0.000;2023-06-14T05:25:36;8.13;;;1.40;;
66707;SDS011;53622;0.000;0.000;2023-06-14T05:28:06;2.72;;;1.30;;
66707;SDS011;53622;0.000;0.000;2023-06-14T05:30:36;4.95;;;1.30;;
66707;SDS011;53622;0.000;0.000;2023-06-14T05:33:06;2.65;;;1.23;;
66707;SDS011;53622;0.000;0.000;2023-06-14T05:35:35;3.22;;;1.15;;
66707;SDS011;53622;0.000;0.000;2023-06-14T05:38:05;3.42;;;1.70;;
66707;SDS011;53622;0.000;0.000;2023-06-14T05:40:34;7.20;;;1.42;;
66707;SDS011;53622;0.000;0.000;2023-06-14T05:43:04;2.58;;;1.30;;
66707;SDS011;53622;0.000;0.000;2023-06-14T05:45:35;5.25;;;1.48;;
66707;SDS011;53622;0.000;0.000;2023-06-14T05:48:04;3.85;;;1.38;;
66707;SDS011;53622;0.000;0.000;2023-06-14T05:50:34;1.75;;;1.33;;
66707;SDS011;53622;0.000;0.000;2023-06-14T05:53:03;5.13;;;1.80;;
66707;SDS011;53622;0.000;0.000;2023-06-14T05:55:32;5.32;;;1.58;;
66707;SDS011;53622;0.000;0.000;2023-06-14T05:58:03;2.00;;;1.45;;
66707;SDS011;53622;0.000;0.000;2023-06-14T06:00:32;5.53;;;1.50;;
66707;SDS011;53622;0.000;0.000;2023-06-14T06:03:03;3.17;;;1.60;;
66707;SDS011;53622;0.000;0.000;2023-06-14T06:05:35;4.50;;;1.50;;
66707;SDS011;53622;0.000;0.000;2023-06-14T06:08:04;3.00;;;1.50;;
66707;SDS011;53622;0.000;0.000;2023-06-14T06:10:33;5.47;;;2.03;;
66707;SDS011;53622;0.000;0.000;2023-06-14T06:13:03;2.53;;;1.50;;
66707;SDS011;53622;0.000;0.000;2023-06-14T06:15:32;2.55;;;1.48;;
66707;SDS011;53622;0.000;0.000;2023-06-14T06:18:02;3.35;;;1.65;;
66707;SDS011;53622;0.000;0.000;2023-06-14T06:20:32;2.50;;;1.60;;
66707;SDS011;53622;0.000;0.000;2023-06-14T06:23:01;3.58;;;1.60;;
66707;SDS011;53622;0.000;0.000;2023-06-14T06:25:30;4.28;;;1.60;;
66707;SDS011;53622;0.000;0.000;2023-06-14T06:28:00;5.13;;;1.50;;
66707;SDS011;53622;0.000;0.000;2023-06-14T06:30:29;3.83;;;2.10;;
66707;SDS011;53622;0.000;0.000;2023-06-14T06:32:58;4.07;;;1.70;;
66707;SDS011;53622;0.000;0.000;2023-06-14T06:35:29;2.38;;;1.60;;
66707;SDS011;53622;0.000;0.000;2023-06-14T06:38:00;3.17;;;1.80;;
66707;SDS011;53622;0.000;0.000;2023-06-14T06:40:29;2.13;;;1.73;;
66707;SDS011;53622;0.000;0.000;2023-06-14T06:42:59;6.63;;;2.20;;
66707;SDS011;53622;0.000;0.000;2023-06-14T06:45:28;6.32;;;2.45;;
66707;SDS011;53622;0.000;0.000;2023-06-14T06:47:57;6.95;;;2.63;;
66707;SDS011;53622;0.000;0.000;2023-06-14T06:50:27;4.60;;;1.92;;
66707;SDS011;53622;0.000;0.000;2023-06-14T06:52:59;5.22;;;1.88;;
66707;SDS011;53622;0.000;0.000;2023-06-14T06:55:28;5.43;;;2.38;;
66707;SDS011;53622;0.000;0.000;2023-06-14T06:57:58;2.50;;;1.73;;
66707;SDS011;53622;0.000;0.000;2023-06-14T07:00:27;5.43;;;2.10;;
66707;SDS011;53622;0.000;0.000;2023-06-14T07:02:57;3.33;;;1.73;;
66707;SDS011;53622;0.000;0.000;2023-06-14T07:05:26;2.50;;;1.75;;
66707;SDS011;53622;0.000;0.000;2023-06-14T07:07:55;4.10;;;2.05;;
66707;SDS011;53622;0.000;0.000;2023-06-14T07:10:26;1.90;;;1.70;;
66707;SDS011;53622;0.000;0.000;2023-06-14T07:12:56;5.50;;;2.35;;
66707;SDS011;53622;0.000;0.000;2023-06-14T07:15:25;5.25;;;2.08;;
66707;SDS011;53622;0.000;0.000;2023-06-14T07:17:54;3.13;;;1.80;;
66707;SDS011;53622;0.000;0.000;2023-06-14T07:20:27;4.25;;;2.10;;
66707;SDS011;53622;0.000;0.000;2023-06-14T07:22:56;3.03;;;2.05;;
66707;SDS011;53622;0.000;0.000;2023-06-14T07:25:27;3.97;;;1.92;;
66707;SDS011;53622;0.000;0.000;2023-06-14T07:27:56;4.00;;;2.25;;
66707;SDS011;53622;0.000;0.000;2023-06-14T07:30:25;2.67;;;2.15;;
66707;SDS011;53622;0.000;0.000;2023-06-14T07:32:57;3.53;;;1.70;;
66707;SDS011;53622;0.000;0.000;2023-06-14T07:35:26;3.92;;;1.88;;
66707;SDS011;53622;0.000;0.000;2023-06-14T07:37:56;4.07;;;2.25;;
66707;SDS011;53622;0.000;0.000;2023-06-14T07:40:26;4.32;;;2.10;;
66707;SDS011;53622;0.000;0.000;2023-06-14T07:42:56;4.40;;;2.13;;
66707;SDS011;53622;0.000;0.000;2023-06-14T07:45:25;3.17;;;2.05;;
66707;SDS011;53622;0.000;0.000;2023-06-14T07:47:54;4.72;;;2.00;;
66707;SDS011;53622;0.000;0.000;2023-06-14T07:50:23;5.53;;;2.10;;
66707;SDS011;53622;0.000;0.000;2023-06-14T07:52:53;2.15;;;1.80;;
66707;SDS011;53622;0.000;0.000;2023-06-14T07:55:22;4.25;;;2.08;;
66707;SDS011;53622;0.000;0.000;2023-06-14T07:57:54;3.53;;;1.60;;
66707;SDS011;53622;0.000;0.000;2023-06-14T08:00:23;4.75;;;1.77;;
66707;SDS011;53622;0.000;0.000;2023-06-14T08:02:53;5.15;;;1.70;;
66707;SDS011;53622;0.000;0.000;2023-06-14T08:05:27;3.72;;;1.83;;
66707;SDS011;53622;0.000;0.000;2023-06-14T08:07:57;6.28;;;1.77;;
66707;SDS011;53622;0.000;0.000;2023-06-14T08:10:26;3.05;;;1.50;;
66707;SDS011;53622;0.000;0.000;2023-06-14T08:12:57;2.50;;;1.65;;
66707;SDS011;53622;0.000;0.000;2023-06-14T08:15:26;2.70;;;1.98;;
66707;SDS011;53622;0.000;0.000;2023-06-14T08:17:56;4.05;;;1.90;;
66707;SDS011;53622;0.000;0.000;2023-06-14T08:20:26;2.35;;;1.40;;
66707;SDS011;53622;0.000;0.000;2023-06-14T08:22:57;1.77;;;1.65;;
66707;SDS011;53622;0.000;0.000;2023-06-14T08:25:26;2.78;;;1.50;;
66707;SDS011;53622;0.000;0.000;2023-06-14T08:27:56;2.63;;;1.60;;
66707;SDS011;53622;0.000;0.000;2023-06-14T08:30:27;2.42;;;1.70;;
66707;SDS011;53622;0.000;0.000;2023-06-14T08:32:56;3.50;;;1.70;;
66707;SDS011;53622;0.000;0.000;2023-06-14T08:35:42;2.75;;;1.67;;
66707;SDS011;53622;0.000;0.000;2023-06-14T08:38:11;2.45;;;1.70;;
66707;SDS011;53622;0.000;0.000;2023-06-14T08:40:41;2.58;;;1.60;;
66707;SDS011;53622;0.000;0.000;2023-06-14T08:43:12;1.83;;;1.40;;
66707;SDS011;53622;0.000;0.000;2023-06-14T08:45:41;2.53;;;1.73;;
66707;SDS011;53622;0.000;0.000;2023-06-14T08:48:11;2.38;;;1.55;;
66707;SDS011;53622;0.000;0.000;2023-06-14T08:50:44;2.40;;;1.70;;
66707;SDS011;53622;0.000;0.000;2023-06-14T08:53:17;1.70;;;1.60;;
66707;SDS011;53622;0.000;0.000;2023-06-14T08:55:47;1.92;;;1.70;;
66707;SDS011;53622;0.000;0.000;2023-06-14T08:58:19;1.50;;;1.40;;
66707;SDS011;53622;0.000;0.000;2023-06-14T09:00:51;2.08;;;1.63;;
66707;SDS011;53622;0.000;0.000;2023-06-14T09:03:20;2.30;;;1.60;;
66707;SDS011;53622;0.000;0.000;2023-06-14T09:05:57;2.45;;;1.55;;
66707;SDS011;53622;0.000;0.000;2023-06-14T09:08:28;2.67;;;1.58;;
66707;SDS011;53622;0.000;0.000;2023-06-14T09:10:58;4.35;;;1.52;;
66707;SDS011;53622;0.000;0.000;2023-06-14T09:13:29;2.17;;;1.50;;
66707;SDS011;53622;0.000;0.000;2023-06-14T09:15:59;1.75;;;1.65;;
66707;SDS011;53622;0.000;0.000;2023-06-14T09:18:35;2.45;;;1.42;;
66707;SDS011;53622;0.000;0.000;2023-06-14T09:21:06;1.73;;;1.55;;
66707;SDS011;53622;0.000;0.000;2023-06-14T09:23:37;5.22;;;1.88;;
66707;SDS011;53622;0.000;0.000;2023-06-14T09:26:07;1.60;;;1.50;;
66707;SDS011;53622;0.000;0.000;2023-06-14T09:28:42;1.80;;;1.60;;
66707;SDS011;53622;0.000;0.000;2023-06-14T09:31:13;2.13;;;1.60;;
66707;SDS011;53622;0.000;0.000;2023-06-14T09:33:45;1.73;;;1.60;;
66707;SDS011;53622;0.000;0.000;2023-06-14T09:36:16;2.88;;;1.85;;
66707;SDS011;53622;0.000;0.000;2023-06-14T09:38:51;1.58;;;1.48;;
66707;SDS011;53622;0.000;0.000;2023-06-14T09:41:27;2.10;;;1.42;;
66707;SDS011;53622;0.000;0.000;2023-06-14T09:44:02;3.08;;;1.88;;
66707;SDS011;53622;0.000;0.000;2023-06-14T09:46:40;1.77;;;1.60;;
66707;SDS011;53622;0.000;0.000;2023-06-14T09:49:09;1.58;;;1.42;;
66707;SDS011;53622;0.000;0.000;2023-06-14T09:51:42;1.52;;;1.42;;
66707;SDS011;53622;0.000;0.000;2023-06-14T09:54:14;2.45;;;1.40;;
66707;SDS011;53622;0.000;0.000;2023-06-14T09:56:44;1.95;;;1.55;;
66707;SDS011;53622;0.000;0.000;2023-06-14T09:59:18;2.53;;;1.67;;
66707;SDS011;53622;0.000;0.000;2023-06-14T10:01:54;1.88;;;1.75;;
66707;SDS011;53622;0.000;0.000;2023-06-14T10:04:28;2.03;;;1.70;;
66707;SDS011;53622;0.000;0.000;2023-06-14T10:06:59;1.65;;;1.50;;
66707;SDS011;53622;0.000;0.000;2023-06-14T10:09:30;2.03;;;1.58;;
66707;SDS011;53622;0.000;0.000;2023-06-14T10:12:00;1.52;;;1.42;;
66707;SDS011;53622;0.000;0.000;2023-06-14T10:14:31;2.22;;;1.55;;
66707;SDS011;53622;0.000;0.000;2023-06-14T10:17:03;3.47;;;1.70;;
66707;SDS011;53622;0.000;0.000;2023-06-14T10:19:37;2.15;;;1.60;;
66707;SDS011;53622;0.000;0.000;2023-06-14T10:22:12;4.00;;;1.40;;
66707;SDS011;53622;0.000;0.000;2023-06-14T10:24:46;2.85;;;1.60;;
66707;SDS011;53622;0.000;0.000;2023-06-14T10:27:17;2.22;;;1.70;;
66707;SDS011;53622;0.000;0.000;2023-06-14T10:30:07;2.90;;;1.40;;
66707;SDS011;53622;0.000;0.000;2023-06-14T10:32:47;2.03;;;1.67;;
66707;SDS011;53622;0.000;0.000;2023-06-14T10:35:33;3.28;;;1.77;;
66707;SDS011;53622;0.000;0.000;2023-06-14T10:38:06;2.10;;;1.58;;
66707;SDS011;53622;0.000;0.000;2023-06-14T10:40:36;3.03;;;1.60;;
66707;SDS011;53622;0.000;0.000;2023-06-14T10:43:22;2.83;;;1.58;;
66707;SDS011;53622;0.000;0.000;2023-06-14T10:48:43;1.75;;;1.20;;
66707;SDS011;53622;0.000;0.000;2023-06-14T10:51:18;2.70;;;1.60;;
66707;SDS011;53622;0.000;0.000;2023-06-14T10:53:48;1.60;;;1.50;;
66707;SDS011;53622;0.000;0.000;2023-06-14T10:56:28;2.63;;;1.60;;
66707;SDS011;53622;0.000;0.000;2023-06-14T10:58:58;1.83;;;1.70;;
66707;SDS011;53622;0.000;0.000;2023-06-14T11:01:35;2.70;;;1.50;;
66707;SDS011;53622;0.000;0.000;2023-06-14T11:04:06;2.38;;;1.60;;
66707;SDS011;53622;0.000;0.000;2023-06-14T11:06:45;2.03;;;1.80;;
66707;SDS011;53622;0.000;0.000;2023-06-14T11:09:30;3.20;;;1.95;;
66707;SDS011;53622;0.000;0.000;2023-06-14T11:12:14;1.90;;;1.75;;
66707;SDS011;53622;0.000;0.000;2023-06-14T11:14:45;3.10;;;1.60;;
66707;SDS011;53622;0.000;0.000;2023-06-14T11:17:17;1.95;;;1.80;;
66707;SDS011;53622;0.000;0.000;2023-06-14T11:19:47;1.88;;;1.77;;
66707;SDS011;53622;0.000;0.000;2023-06-14T11:22:17;2.35;;;1.90;;
66707;SDS011;53622;0.000;0.000;2023-06-14T11:24:46;3.03;;;1.75;;
66707;SDS011;53622;0.000;0.000;2023-06-14T11:27:16;2.17;;;1.65;;
66707;SDS011;53622;0.000;0.000;2023-06-14T11:29:48;2.50;;;1.98;;
66707;SDS011;53622;0.000;0.000;2023-06-14T11:32:19;2.20;;;1.77;;
66707;SDS011;53622;0.000;0.000;2023-06-14T11:34:48;3.78;;;2.00;;
66707;SDS011;53622;0.000;0.000;2023-06-14T11:37:18;2.08;;;1.90;;
66707;SDS011;53622;0.000;0.000;2023-06-14T11:39:48;2.13;;;2.03;;
66707;SDS011;53622;0.000;0.000;2023-06-14T11:42:17;2.92;;;2.20;;
66707;SDS011;53622;0.000;0.000;2023-06-14T11:44:47;1.90;;;1.80;;
66707;SDS011;53622;0.000;0.000;2023-06-14T11:47:16;2.10;;;1.88;;
66707;SDS011;53622;0.000;0.000;2023-06-14T11:49:47;2.00;;;1.75;;
66707;SDS011;53622;0.000;0.000;2023-06-14T11:52:16;2.22;;;2.00;;
66707;SDS011;53622;0.000;0.000;2023-06-14T11:54:47;4.93;;;1.95;;
66707;SDS011;53622;0.000;0.000;2023-06-14T11:57:36;2.47;;;1.83;;
66707;SDS011;53622;0.000;0.000;2023-06-14T12:00:19;2.13;;;2.00;;
66707;SDS011;53622;0.000;0.000;2023-06-14T12:03:06;2.20;;;1.98;;
66707;SDS011;53622;0.000;0.000;2023-06-14T12:05:37;2.33;;;2.15;;
66707;SDS011;53622;0.000;0.000;2023-06-14T12:08:06;2.58;;;2.13;;
66707;SDS011;53622;0.000;0.000;2023-06-14T12:10:39;2.33;;;1.98;;
66707;SDS011;53622;0.000;0.000;2023-06-14T12:13:11;2.47;;;2.20;;
66707;SDS011;53622;0.000;0.000;2023-06-14T12:15:40;2.40;;;2.00;;
66707;SDS011;53622;0.000;0.000;2023-06-14T12:18:10;1.90;;;1.80;;
66707;SDS011;53622;0.000;0.000;2023-06-14T12:20:41;2.33;;;2.13;;
66707;SDS011;53622;0.000;0.000;2023-06-14T12:23:10;2.00;;;1.90;;
66707;SDS011;53622;0.000;0.000;2023-06-14T12:25:39;2.58;;;2.33;;
66707;SDS011;53622;0.000;0.000;2023-06-14T12:28:12;2.40;;;2.00;;
66707;SDS011;53622;0.000;0.000;2023-06-14T12:30:41;2.47;;;2.03;;
66707;SDS011;53622;0.000;0.000;2023-06-14T12:33:10;2.13;;;1.85;;
66707;SDS011;53622;0.000;0.000;2023-06-14T12:35:41;2.20;;;2.10;;
66707;SDS011;53622;0.000;0.000;2023-06-14T12:38:11;1.95;;;1.80;;
66707;SDS011;53622;0.000;0.000;2023-06-14T12:40:41;2.10;;;2.00;;
66707;SDS011;53622;0.000;0.000;2023-06-14T12:43:11;2.60;;;2.08;;
66707;SDS011;53622;0.000;0.000;2023-06-14T12:45:40;2.30;;;1.98;;
66707;SDS011;53622;0.000;0.000;2023-06-14T12:48:09;2.28;;;2.05;;
66707;SDS011;53622;0.000;0.000;2023-06-14T12:50:38;3.10;;;2.17;;
66707;SDS011;53622;0.000;0.000;2023-06-14T12:53:09;2.20;;;2.00;;
66707;SDS011;53622;0.000;0.000;2023-06-14T12:55:39;2.53;;;2.33;;
66707;SDS011;53622;0.000;0.000;2023-06-14T12:58:08;3.08;;;2.30;;
66707;SDS011;53622;0.000;0.000;2023-06-14T13:00:39;2.33;;;2.13;;
66707;SDS011;53622;0.000;0.000;2023-06-14T13:03:09;5.45;;;2.30;;
66707;SDS011;53622;0.000;0.000;2023-06-14T13:05:39;5.93;;;2.40;;
66707;SDS011;53622;0.000;0.000;2023-06-14T13:08:11;3.05;;;2.15;;
66707;SDS011;53622;0.000;0.000;2023-06-14T13:10:41;2.70;;;2.50;;
66707;SDS011;53622;0.000;0.000;2023-06-14T13:13:10;2.40;;;2.20;;
66707;SDS011;53622;0.000;0.000;2023-06-14T13:15:40;3.03;;;2.22;;
66707;SDS011;53622;0.000;0.000;2023-06-14T13:18:11;3.67;;;2.40;;
66707;SDS011;53622;0.000;0.000;2023-06-14T13:20:40;5.32;;;2.50;;
66707;SDS011;53622;0.000;0.000;2023-06-14T13:23:09;2.75;;;2.55;;
66707;SDS011;53622;0.000;0.000;2023-06-14T13:25:40;5.30;;;2.63;;
66707;SDS011;53622;0.000;0.000;2023-06-14T13:28:10;4.53;;;2.33;;
66707;SDS011;53622;0.000;0.000;2023-06-14T13:30:39;5.13;;;2.55;;
66707;SDS011;53622;0.000;0.000;2023-06-14T13:33:08;2.80;;;2.35;;
66707;SDS011;53622;0.000;0.000;2023-06-14T13:35:38;5.70;;;2.53;;
66707;SDS011;53622;0.000;0.000;2023-06-14T13:38:07;2.92;;;2.38;;
66707;SDS011;53622;0.000;0.000;2023-06-14T13:40:39;3.00;;;2.55;;
66707;SDS011;53622;0.000;0.000;2023-06-14T13:43:09;4.03;;;2.50;;
66707;SDS011;53622;0.000;0.000;2023-06-14T13:45:38;3.03;;;2.40;;
66707;SDS011;53622;0.000;0.000;2023-06-14T13:48:08;2.92;;;2.50;;
66707;SDS011;53622;0.000;0.000;2023-06-14T13:50:38;2.95;;;2.53;;
66707;SDS011;53622;0.000;0.000;2023-06-14T13:53:07;5.95;;;2.85;;
66707;SDS011;53622;0.000;0.000;2023-06-14T13:55:36;3.88;;;2.88;;
66707;SDS011;53622;0.000;0.000;2023-06-14T13:58:07;5.55;;;2.40;;
66707;SDS011;53622;0.000;0.000;2023-06-14T14:00:36;3.38;;;2.55;;
66707;SDS011;53622;0.000;0.000;2023-06-14T14:03:07;2.80;;;2.60;;
66707;SDS011;53622;0.000;0.000;2023-06-14T14:05:37;4.72;;;2.30;;
66707;SDS011;53622;0.000;0.000;2023-06-14T14:08:06;2.63;;;2.42;;
66707;SDS011;53622;0.000;0.000;2023-06-14T14:10:35;3.45;;;2.78;;
66707;SDS011;53622;0.000;0.000;2023-06-14T14:13:06;2.88;;;2.58;;
66707;SDS011;53622;0.000;0.000;2023-06-14T14:15:35;2.40;;;2.20;;
66707;SDS011;53622;0.000;0.000;2023-06-14T14:18:05;3.65;;;2.50;;
66707;SDS011;53622;0.000;0.000;2023-06-14T14:20:35;3.08;;;2.80;;
66707;SDS011;53622;0.000;0.000;2023-06-14T14:23:04;4.18;;;2.50;;
66707;SDS011;53622;0.000;0.000;2023-06-14T14:25:33;3.47;;;2.67;;
66707;SDS011;53622;0.000;0.000;2023-06-14T14:28:03;2.92;;;2.72;;
66707;SDS011;53622;0.000;0.000;2023-06-14T14:30:34;2.85;;;2.65;;
66707;SDS011;53622;0.000;0.000;2023-06-14T14:33:06;2.72;;;2.53;;
66707;SDS011;53622;0.000;0.000;2023-06-14T14:35:36;3.45;;;2.80;;
66707;SDS011;53622;0.000;0.000;2023-06-14T14:38:05;3.15;;;2.95;;
66707;SDS011;53622;0.000;0.000;2023-06-14T14:40:34;3.20;;;2.90;;
66707;SDS011;53622;0.000;0.000;2023-06-14T14:43:04;4.25;;;2.70;;
66707;SDS011;53622;0.000;0.000;2023-06-14T14:45:34;4.07;;;3.38;;
66707;SDS011;53622;0.000;0.000;2023-06-14T14:48:04;4.15;;;2.95;;
66707;SDS011;53622;0.000;0.000;2023-06-14T14:50:34;4.05;;;2.83;;
66707;SDS011;53622;0.000;0.000;2023-06-14T14:53:03;3.60;;;2.55;;
66707;SDS011;53622;0.000;0.000;2023-06-14T14:55:33;4.57;;;2.55;;
66707;SDS011;53622;0.000;0.000;2023-06-14T14:58:04;4.32;;;2.50;;
66707;SDS011;53622;0.000;0.000;2023-06-14T15:00:35;4.80;;;2.95;;
66707;SDS011;53622;0.000;0.000;2023-06-14T15:03:04;3.25;;;2.80;;
66707;SDS011;53622;0.000;0.000;2023-06-14T15:05:34;3.17;;;2.70;;
66707;SDS011;53622;0.000;0.000;2023-06-14T15:08:04;6.60;;;3.10;;
66707;SDS011;53622;0.000;0.000;2023-06-14T15:10:39;2.92;;;2.65;;
66707;SDS011;53622;0.000;0.000;2023-06-14T15:13:09;5.78;;;3.00;;
66707;SDS011;53622;0.000;0.000;2023-06-14T15:15:40;3.05;;;2.67;;
66707;SDS011;53622;0.000;0.000;2023-06-14T15:18:09;3.80;;;2.78;;
66707;SDS011;53622;0.000;0.000;2023-06-14T15:20:38;3.10;;;2.80;;
66707;SDS011;53622;0.000;0.000;2023-06-14T15:23:08;8.05;;;3.10;;
66707;SDS011;53622;0.000;0.000;2023-06-14T15:25:38;10.50;;;3.05;;